ZTL Weather Bulletin
Prepared: 6/24/2016 8:10 PM by: MW valid for 9 hours
FOR ATC PLANNING PURPOSES
A weak cold front will slowly move through ZTL overnight, supporting only isolated thunderstorms with very little confidence in coverage or intensity through 07z. Cells will move to the east-southeast at 15-20kts. Expect VFR conditions outside of convection under FEW050-080 clouds. Flight Hazards outside of convection: LGT-MOD Turbulence above FL300 NE ZTL. Altimeters will remain above 29.92ins. Ceilings below 050 are not expected outside convection.

Restricted Area Convection: R2102...None. R3002...None. R3004...None.
FTUS80 KATL 250133 AAA
KATL 250130Z 2502/2606 28004KT P6SM FEW060 SCT250
     FM251500 29007KT P6SM SCT045 BKN250
     FM251800 30008G15KT P6SM VCSH BKN060
     FM252300 30008KT P6SM SCT060
     FM260200 34005KT P6SM SCT250
Remark: NONE.
FTUS31 KCLT 242321
KCLT 242320Z 2500/2524 33004KT P6SM SCT060 BKN250
     FM250300 01004KT P6SM FEW070
     FM251400 03007KT P6SM FEW060 SCT250

Remark: NONE.
12-18 Hour Forecast Map
Weather Map
Convective Gate Forecast
Convective Gate Forecast
Icing Gate Forecast Icing Gate Forecast


USA.gov is the U.S. government's official web portal to all federal, state and local government web resources and services.